createdAt,value
2023-05-19T00:01:17.046Z,69.40
2023-05-19T00:03:54.812Z,68.51
2023-05-19T00:06:32.913Z,69.03
2023-05-19T00:09:05.085Z,68.45
2023-05-19T00:11:31.936Z,68.77
2023-05-19T00:14:00.758Z,69.56
2023-05-19T00:16:29.350Z,69.21
2023-05-19T00:18:58.116Z,68.73
2023-05-19T00:21:24.875Z,69.04
2023-05-19T00:23:51.694Z,68.65
2023-05-19T00:26:18.876Z,68.97
2023-05-19T00:28:45.558Z,68.59
2023-05-19T00:31:12.298Z,68.83
2023-05-19T00:33:39.007Z,69.45
2023-05-19T00:36:05.938Z,69.62
2023-05-19T00:38:35.300Z,69.79
2023-05-19T00:41:03.119Z,69.86
2023-05-19T00:43:30.449Z,69.88
2023-05-19T00:45:58.136Z,71.52
2023-05-19T00:48:28.008Z,71.52
2023-05-19T00:51:02.122Z,71.41
2023-05-19T00:53:29.946Z,71.59
2023-05-19T00:55:57.199Z,72.21
2023-05-19T00:58:29.197Z,71.96
2023-05-19T01:01:03.854Z,72.65
2023-05-19T01:03:36.276Z,73.14
2023-05-19T01:06:07.535Z,73.93
2023-05-19T01:08:36.339Z,72.89
2023-05-19T01:11:03.951Z,73.21
2023-05-19T01:13:31.667Z,73.01
2023-05-19T01:16:09.788Z,72.80
2023-05-19T01:19:10.938Z,72.72
2023-05-19T01:22:23.055Z,72.49
2023-05-19T01:25:28.137Z,72.81
2023-05-19T01:28:43.085Z,73.39
2023-05-19T01:31:11.916Z,72.73
2023-05-19T01:33:41.318Z,73.18
2023-05-19T01:36:08.501Z,73.96
2023-05-19T01:38:38.078Z,73.47
2023-05-19T01:41:06.665Z,74.92
2023-05-19T01:43:33.842Z,74.98
2023-05-19T01:46:02.599Z,74.70
2023-05-19T01:48:30.724Z,74.62
2023-05-19T01:50:57.529Z,74.97
2023-05-19T01:53:24.788Z,74.58
2023-05-19T01:55:56.437Z,74.61
2023-05-19T01:58:45.814Z,74.52
2023-05-19T02:01:31.183Z,75.55
2023-05-19T02:04:16.517Z,75.06
2023-05-19T02:07:03.940Z,74.74
2023-05-19T02:09:45.310Z,75.75
2023-05-19T02:12:18.929Z,76.07
2023-05-19T02:15:06.833Z,76.49
2023-05-19T02:17:36.643Z,76.98
2023-05-19T02:20:05.274Z,77.17
2023-05-19T02:22:32.119Z,77.37
2023-05-19T02:24:58.860Z,78.05
2023-05-19T02:27:26.405Z,78.26
2023-05-19T02:29:53.321Z,77.40
2023-05-19T02:32:21.031Z,77.27
2023-05-19T02:34:48.042Z,78.30
2023-05-19T02:37:15.928Z,76.85
2023-05-19T02:39:43.104Z,76.68
2023-05-19T02:42:10.037Z,78.26
2023-05-19T02:44:36.936Z,78.27
2023-05-19T02:47:03.701Z,77.27
2023-05-19T02:49:36.077Z,77.87
2023-05-19T02:52:06.797Z,77.31
2023-05-19T02:54:34.661Z,77.13
2023-05-19T02:57:01.947Z,78.33
2023-05-19T02:59:28.797Z,78.85
2023-05-19T03:01:56.872Z,79.32
2023-05-19T03:04:23.548Z,78.88
2023-05-19T03:06:50.259Z,78.64
2023-05-19T03:09:17.202Z,78.56
2023-05-19T03:11:43.847Z,79.37
2023-05-19T03:14:10.533Z,79.45
2023-05-19T03:16:37.400Z,79.68
2023-05-19T03:19:04.393Z,78.61
2023-05-19T03:21:32.241Z,78.03
2023-05-19T03:23:58.906Z,79.65
2023-05-19T03:26:25.637Z,79.24
2023-05-19T03:28:52.463Z,79.35
2023-05-19T03:31:19.149Z,78.45
2023-05-19T03:33:45.864Z,78.11
2023-05-19T03:36:12.784Z,79.38
2023-05-19T03:38:39.541Z,78.97
2023-05-19T03:41:06.217Z,79.01
2023-05-19T03:43:32.893Z,79.45
2023-05-19T03:45:59.671Z,80.06
2023-05-19T03:48:26.961Z,80.06
2023-05-19T03:50:54.392Z,80.13
2023-05-19T03:53:21.152Z,79.99
2023-05-19T03:55:49.766Z,80.46
2023-05-19T03:58:16.747Z,79.87
2023-05-19T04:00:43.513Z,79.99
2023-05-19T04:03:10.295Z,79.92
2023-05-19T04:05:37.328Z,79.45
2023-05-19T04:08:04.044Z,80.11
2023-05-19T04:10:31.083Z,81.02
2023-05-19T04:12:57.837Z,79.87
2023-05-19T04:15:24.645Z,79.88
2023-05-19T04:17:51.378Z,80.50
2023-05-19T04:20:18.167Z,80.99
2023-05-19T04:22:44.838Z,81.19
2023-05-19T04:25:11.944Z,81.44
2023-05-19T04:27:39.291Z,81.29
2023-05-19T04:30:06.911Z,82.24
2023-05-19T04:32:33.716Z,82.34
2023-05-19T04:35:00.388Z,82.11
2023-05-19T04:37:27.292Z,82.19
2023-05-19T04:39:54.317Z,82.43
2023-05-19T04:42:21.243Z,83.11
2023-05-19T04:44:49.462Z,82.93
2023-05-19T04:47:16.278Z,83.49
2023-05-19T04:49:43.052Z,83.39
2023-05-19T04:52:11.265Z,82.95
2023-05-19T04:54:39.473Z,82.39
2023-05-19T04:57:06.568Z,82.76
2023-05-19T04:59:33.268Z,82.27
2023-05-19T05:02:00.257Z,82.23
2023-05-19T05:04:26.924Z,82.65
2023-05-19T05:06:53.580Z,82.92
2023-05-19T05:09:20.241Z,83.30
2023-05-19T05:11:47.389Z,82.59
2023-05-19T05:14:14.335Z,82.14
2023-05-19T05:16:41.932Z,81.97
2023-05-19T05:19:08.952Z,81.87
2023-05-19T05:21:36.230Z,81.85
2023-05-19T05:24:03.220Z,81.98
2023-05-19T05:26:33.426Z,82.11
2023-05-19T05:29:00.152Z,81.40
2023-05-19T05:31:26.984Z,80.06
2023-05-19T05:33:53.684Z,79.53
2023-05-19T05:36:20.496Z,79.26
2023-05-19T05:38:47.147Z,78.79
2023-05-19T05:41:13.890Z,77.95
2023-05-19T05:43:40.589Z,77.32
2023-05-19T05:46:07.498Z,77.07
2023-05-19T05:48:34.647Z,77.32
2023-05-19T05:51:01.518Z,76.66
2023-05-19T05:53:32.232Z,76.49
2023-05-19T05:55:59.301Z,76.05
2023-05-19T05:58:26.034Z,76.43
2023-05-19T06:00:53.543Z,76.23
2023-05-19T06:03:24.454Z,74.95
2023-05-19T06:05:51.574Z,74.22
2023-05-19T06:08:18.342Z,73.97
2023-05-19T06:10:47.193Z,73.98
2023-05-19T06:13:16.359Z,74.86
2023-05-19T06:15:43.103Z,75.02
2023-05-19T06:18:09.831Z,75.18
2023-05-19T06:20:36.629Z,75.20
2023-05-19T06:23:03.448Z,75.29
2023-05-19T06:25:30.634Z,71.27
2023-05-19T06:27:57.512Z,71.89
2023-05-19T06:30:24.198Z,71.05
2023-05-19T06:32:51.007Z,71.13
2023-05-19T06:35:17.777Z,72.11
2023-05-19T06:37:44.420Z,71.93
2023-05-19T06:40:12.049Z,71.34
2023-05-19T06:42:38.824Z,67.81
2023-05-19T06:45:06.129Z,68.99
2023-05-19T06:47:32.884Z,64.09
2023-05-19T06:49:59.553Z,63.06
2023-05-19T06:52:26.211Z,63.29
2023-05-19T06:54:52.867Z,62.35
2023-05-19T06:57:19.582Z,58.21
2023-05-19T06:59:46.803Z,58.48
2023-05-19T07:02:13.773Z,58.86
2023-05-19T07:04:41.040Z,59.33
2023-05-19T07:07:07.794Z,56.36
2023-05-19T07:09:34.836Z,55.71
2023-05-19T07:12:01.728Z,56.40
2023-05-19T07:14:28.483Z,55.50
2023-05-19T07:16:55.210Z,55.70
2023-05-19T07:19:22.588Z,56.37
2023-05-19T07:21:49.835Z,56.94
2023-05-19T07:24:16.546Z,56.01
2023-05-19T07:26:43.465Z,54.30
2023-05-19T07:29:10.077Z,54.75
2023-05-19T07:31:36.902Z,55.14
2023-05-19T07:34:03.669Z,54.28
2023-05-19T07:36:30.495Z,54.29
2023-05-19T07:38:57.247Z,53.72
2023-05-19T07:41:23.968Z,52.52
2023-05-19T07:43:50.635Z,53.86
2023-05-19T07:46:17.505Z,51.38
2023-05-19T07:48:44.296Z,52.69
2023-05-19T07:51:12.770Z,52.04
2023-05-19T07:53:39.597Z,52.33
2023-05-19T07:56:06.650Z,51.40
2023-05-19T07:58:33.395Z,52.15
2023-05-19T08:01:00.774Z,51.76
2023-05-19T08:03:27.897Z,50.83
2023-05-19T08:05:54.833Z,50.64
2023-05-19T08:08:22.056Z,51.85
2023-05-19T08:10:48.827Z,52.00
2023-05-19T08:13:15.549Z,51.28
2023-05-19T08:15:42.894Z,49.68
2023-05-19T08:18:09.700Z,50.57
2023-05-19T08:20:36.803Z,49.21
2023-05-19T08:23:03.682Z,49.33
2023-05-19T08:25:30.444Z,49.18
2023-05-19T08:27:57.182Z,49.47
2023-05-19T08:30:24.340Z,48.83
2023-05-19T08:32:51.294Z,48.93
2023-05-19T08:35:18.073Z,49.92
2023-05-19T08:37:44.975Z,49.83
2023-05-19T08:40:17.384Z,48.85
2023-05-19T08:42:45.888Z,47.79
2023-05-19T08:45:12.940Z,49.16
2023-05-19T08:47:46.339Z,49.29
2023-05-19T08:50:21.383Z,50.49
2023-05-19T08:52:53.406Z,50.52
2023-05-19T08:55:34.043Z,50.09
2023-05-19T08:58:03.537Z,50.95
2023-05-19T09:00:30.658Z,50.90
2023-05-19T09:03:05.933Z,50.60
2023-05-19T09:05:39.356Z,51.81
2023-05-19T09:08:06.047Z,51.51
2023-05-19T09:10:32.667Z,51.85
2023-05-19T09:12:59.624Z,51.91
2023-05-19T09:15:30.669Z,51.79
2023-05-19T09:18:08.615Z,51.56
2023-05-19T09:20:41.530Z,51.21
2023-05-19T09:23:13.774Z,52.96
2023-05-19T09:25:50.869Z,52.48
2023-05-19T09:28:24.298Z,52.37
2023-05-19T09:31:02.861Z,52.56
2023-05-19T09:33:30.263Z,53.15
2023-05-19T09:35:57.256Z,53.67
2023-05-19T09:38:27.760Z,53.80
2023-05-19T09:40:57.565Z,51.59
2023-05-19T09:43:24.544Z,52.31
2023-05-19T09:46:03.717Z,50.10
2023-05-19T09:48:30.633Z,50.58
2023-05-19T09:50:58.162Z,49.59
2023-05-19T09:53:25.460Z,51.23
2023-05-19T09:55:57.900Z,51.08
2023-05-19T09:58:26.484Z,50.49
2023-05-19T10:00:54.898Z,51.01
2023-05-19T10:03:25.702Z,51.41
2023-05-19T10:05:53.794Z,50.73
2023-05-19T10:08:21.628Z,48.71
2023-05-19T10:10:48.563Z,48.68
2023-05-19T10:13:16.569Z,49.55
2023-05-19T10:15:57.113Z,47.76
2023-05-19T10:18:26.787Z,47.67
2023-05-19T10:20:54.402Z,46.96
2023-05-19T10:23:22.443Z,47.46
2023-05-19T10:25:52.264Z,47.93
2023-05-19T10:28:25.310Z,47.88
2023-05-19T10:30:54.918Z,47.13
2023-05-19T10:33:46.962Z,46.34
2023-05-19T10:36:51.974Z,46.23
2023-05-19T10:39:19.015Z,45.58
2023-05-19T10:41:57.711Z,45.73
2023-05-19T10:44:42.484Z,45.40
2023-05-19T10:47:12.242Z,44.93
2023-05-19T10:49:40.018Z,45.52
2023-05-19T10:52:26.140Z,45.36
2023-05-19T10:54:54.834Z,42.85
2023-05-19T10:57:33.305Z,43.44
2023-05-19T11:00:11.500Z,44.06
2023-05-19T11:02:40.429Z,44.38
2023-05-19T11:05:09.440Z,45.02
2023-05-19T11:07:36.180Z,44.81
2023-05-19T11:10:09.719Z,43.98
2023-05-19T11:12:45.523Z,44.84
2023-05-19T11:15:14.356Z,44.12
2023-05-19T11:17:42.576Z,43.60
2023-05-19T11:20:20.491Z,44.58
2023-05-19T11:23:04.262Z,45.08
2023-05-19T11:25:51.584Z,43.60
2023-05-19T11:28:20.845Z,42.69
2023-05-19T11:30:52.591Z,43.73
2023-05-19T11:33:21.005Z,42.42
2023-05-19T11:35:50.383Z,42.72
2023-05-19T11:38:19.159Z,42.81
2023-05-19T11:40:48.142Z,42.95
2023-05-19T11:43:14.830Z,41.35
2023-05-19T11:45:41.923Z,42.15
2023-05-19T11:48:16.127Z,42.11
2023-05-19T11:50:44.156Z,42.40
2023-05-19T11:53:15.209Z,42.24
2023-05-19T11:55:46.797Z,42.96
2023-05-19T11:58:14.036Z,41.19
2023-05-19T12:00:41.777Z,40.72
2023-05-19T12:03:09.313Z,40.15
2023-05-19T12:05:46.378Z,40.14
2023-05-19T12:08:13.967Z,40.97
2023-05-19T12:10:41.202Z,41.12
2023-05-19T12:13:09.748Z,37.79
2023-05-19T12:15:37.562Z,38.69
2023-05-19T12:18:04.383Z,38.48
2023-05-19T12:20:36.226Z,37.63
2023-05-19T12:23:04.018Z,36.97
2023-05-19T12:25:31.918Z,38.14
2023-05-19T12:28:00.358Z,37.51
2023-05-19T12:30:31.699Z,36.50
2023-05-19T12:32:58.895Z,38.25
2023-05-19T12:35:30.888Z,37.23
2023-05-19T12:38:02.396Z,36.86
2023-05-19T12:40:32.187Z,38.44
2023-05-19T12:42:59.435Z,37.38
2023-05-19T12:45:28.421Z,37.70
2023-05-19T12:47:55.404Z,39.49
2023-05-19T12:50:22.212Z,34.28
2023-05-19T12:52:53.395Z,35.27
2023-05-19T12:55:21.123Z,36.76
2023-05-19T12:57:54.718Z,37.01
2023-05-19T13:00:25.844Z,37.93
2023-05-19T13:03:00.280Z,39.01
2023-05-19T13:05:28.533Z,39.37
2023-05-19T13:07:59.563Z,39.13
2023-05-19T13:10:30.008Z,39.37
2023-05-19T13:12:57.706Z,38.50
2023-05-19T13:15:29.442Z,38.54
2023-05-19T13:17:56.225Z,37.98
2023-05-19T13:20:23.087Z,38.41
2023-05-19T13:22:50.456Z,39.38
2023-05-19T13:25:17.492Z,37.83
2023-05-19T13:27:48.489Z,38.97
2023-05-19T13:30:16.332Z,39.56
2023-05-19T13:32:43.132Z,39.62
2023-05-19T13:35:10.865Z,40.05
2023-05-19T13:37:38.088Z,40.69
2023-05-19T13:40:05.507Z,41.14
2023-05-19T13:42:33.121Z,41.37
2023-05-19T13:44:59.812Z,42.19
2023-05-19T13:47:26.843Z,41.71
2023-05-19T13:49:54.195Z,40.47
2023-05-19T13:52:22.078Z,40.34
2023-05-19T13:54:49.470Z,40.87
2023-05-19T13:57:16.863Z,40.60
2023-05-19T14:00:00.088Z,38.90
2023-05-19T14:02:28.336Z,39.34
2023-05-19T14:04:55.934Z,39.08
2023-05-19T14:07:22.673Z,39.31
2023-05-19T14:09:51.192Z,38.25
2023-05-19T14:12:18.082Z,39.00
2023-05-19T14:14:45.008Z,38.26
2023-05-19T14:17:12.299Z,38.78
2023-05-19T14:19:39.014Z,38.68
2023-05-19T14:22:06.040Z,37.54
2023-05-19T14:24:34.492Z,36.84
2023-05-19T14:27:01.177Z,37.86
2023-05-19T14:29:28.355Z,37.67
2023-05-19T14:31:55.130Z,38.46
2023-05-19T14:34:21.857Z,39.01
2023-05-19T14:36:48.886Z,39.28
2023-05-19T14:39:15.779Z,39.85
2023-05-19T14:41:42.438Z,39.75
2023-05-19T14:44:09.171Z,39.67
2023-05-19T14:46:36.272Z,39.26
2023-05-19T14:49:03.584Z,40.24
2023-05-19T14:51:30.281Z,39.73
2023-05-19T14:53:56.961Z,39.18
2023-05-19T14:56:23.711Z,39.61
2023-05-19T14:58:50.464Z,38.95
2023-05-19T15:01:17.889Z,39.13
2023-05-19T15:03:44.596Z,38.26
2023-05-19T15:06:11.381Z,39.15
2023-05-19T15:08:39.272Z,38.59
2023-05-19T15:11:06.105Z,39.09
2023-05-19T15:13:32.797Z,39.93
2023-05-19T15:16:15.666Z,40.42
2023-05-19T15:18:44.135Z,40.54
2023-05-19T15:21:10.927Z,41.01
2023-05-19T15:23:37.598Z,40.42
2023-05-19T15:26:04.477Z,40.81
2023-05-19T15:28:31.137Z,41.12
2023-05-19T15:30:57.881Z,41.11
2023-05-19T15:33:24.583Z,41.29
2023-05-19T15:35:52.375Z,40.76
2023-05-19T15:38:22.141Z,40.65
2023-05-19T15:40:48.818Z,41.45
2023-05-19T15:43:15.524Z,41.90
2023-05-19T15:45:42.232Z,41.20
2023-05-19T15:48:08.952Z,40.60
2023-05-19T15:50:36.119Z,41.90
2023-05-19T15:53:03.404Z,41.39
2023-05-19T15:55:30.110Z,42.01
2023-05-19T15:57:56.892Z,41.78
2023-05-19T16:00:23.713Z,41.76
2023-05-19T16:02:50.701Z,42.20
2023-05-19T16:05:17.926Z,42.20
2023-05-19T16:07:45.095Z,41.98
2023-05-19T16:10:11.854Z,41.85
2023-05-19T16:12:38.505Z,41.94
2023-05-19T16:15:05.852Z,43.33
2023-05-19T16:17:32.612Z,42.15
2023-05-19T16:19:59.341Z,41.83
2023-05-19T16:22:26.188Z,42.32
2023-05-19T16:24:53.091Z,41.59
2023-05-19T16:27:19.849Z,41.67
2023-05-19T16:29:46.725Z,42.24
2023-05-19T16:32:13.553Z,41.97
2023-05-19T16:34:40.343Z,42.55
2023-05-19T16:37:07.093Z,43.43
2023-05-19T16:39:37.136Z,43.47
2023-05-19T16:42:04.754Z,43.47
2023-05-19T16:44:31.550Z,43.41
2023-05-19T16:46:58.261Z,43.33
2023-05-19T16:49:25.031Z,43.47
2023-05-19T16:51:53.075Z,43.74
2023-05-19T16:54:21.321Z,44.15
2023-05-19T16:56:48.077Z,44.29
2023-05-19T16:59:14.802Z,44.62
2023-05-19T17:01:41.712Z,44.03
2023-05-19T17:04:08.677Z,44.17
2023-05-19T17:06:35.946Z,44.59
2023-05-19T17:09:02.778Z,44.91
2023-05-19T17:11:29.499Z,45.21
2023-05-19T17:13:56.211Z,45.53
2023-05-19T17:16:23.654Z,45.44
2023-05-19T17:18:51.168Z,45.97
2023-05-19T17:21:17.970Z,46.26
2023-05-19T17:23:44.736Z,46.18
2023-05-19T17:26:11.585Z,46.23
2023-05-19T17:28:38.365Z,46.60
2023-05-19T17:31:12.343Z,47.36
2023-05-19T17:33:39.512Z,46.76
2023-05-19T17:36:07.622Z,46.70
2023-05-19T17:38:34.475Z,47.29
2023-05-19T17:41:09.685Z,47.25
2023-05-19T17:43:37.513Z,47.35
2023-05-19T17:46:04.802Z,47.31
2023-05-19T17:48:31.815Z,47.52
2023-05-19T17:50:59.438Z,47.66
2023-05-19T17:53:29.321Z,47.72
2023-05-19T17:56:01.189Z,47.79
2023-05-19T17:58:28.500Z,48.02
2023-05-19T18:00:55.572Z,48.24
2023-05-19T18:03:22.942Z,48.10
2023-05-19T18:05:51.189Z,48.40
2023-05-19T18:08:18.332Z,48.76
2023-05-19T18:10:46.313Z,48.63
2023-05-19T18:13:15.883Z,48.78
2023-05-19T18:15:42.922Z,49.00
2023-05-19T18:18:11.035Z,49.10
2023-05-19T18:20:38.879Z,49.31
2023-05-19T18:23:06.263Z,49.59
2023-05-19T18:25:33.074Z,49.86
2023-05-19T18:27:59.707Z,49.72
2023-05-19T18:30:26.388Z,50.46
2023-05-19T18:32:53.128Z,50.15
2023-05-19T18:35:21.206Z,50.35
2023-05-19T18:37:47.913Z,50.55
2023-05-19T18:40:14.574Z,50.40
2023-05-19T18:42:41.210Z,51.10
2023-05-19T18:45:08.331Z,51.52
2023-05-19T18:47:35.065Z,51.75
2023-05-19T18:50:01.761Z,52.23
2023-05-19T18:52:29.189Z,52.68
2023-05-19T18:54:55.967Z,53.03
2023-05-19T18:57:22.691Z,53.49
2023-05-19T18:59:49.399Z,53.56
2023-05-19T19:02:16.016Z,54.28
2023-05-19T19:04:42.760Z,54.60
2023-05-19T19:07:09.477Z,54.57
2023-05-19T19:09:36.212Z,54.98
2023-05-19T19:12:02.960Z,55.41
2023-05-19T19:14:29.666Z,55.35
2023-05-19T19:16:56.586Z,56.17
2023-05-19T19:19:23.940Z,56.09
2023-05-19T19:21:50.775Z,56.99
2023-05-19T19:24:17.461Z,56.86
2023-05-19T19:26:44.146Z,57.10
2023-05-19T19:29:10.912Z,57.03
2023-05-19T19:31:37.721Z,57.41
2023-05-19T19:34:09.123Z,57.65
2023-05-19T19:36:36.382Z,58.20
2023-05-19T19:39:03.172Z,58.18
2023-05-19T19:41:30.376Z,58.72
2023-05-19T19:43:57.051Z,58.85
2023-05-19T19:46:23.781Z,58.69
2023-05-19T19:48:51.117Z,58.91
2023-05-19T19:51:17.906Z,59.44
2023-05-19T19:53:44.627Z,59.43
2023-05-19T19:56:11.572Z,59.66
2023-05-19T19:58:38.262Z,59.33
2023-05-19T20:01:06.136Z,60.14
2023-05-19T20:03:33.523Z,60.27
2023-05-19T20:06:01.180Z,59.98
2023-05-19T20:08:27.957Z,61.24
2023-05-19T20:10:55.212Z,61.93
2023-05-19T20:13:21.938Z,62.27
2023-05-19T20:15:48.748Z,62.32
2023-05-19T20:18:15.663Z,62.50
2023-05-19T20:20:42.972Z,62.72
2023-05-19T20:23:09.829Z,62.54
2023-05-19T20:25:54.832Z,62.68
2023-05-19T20:28:29.631Z,63.23
2023-05-19T20:30:56.392Z,63.31
2023-05-19T20:33:23.031Z,63.48
2023-05-19T20:35:49.714Z,63.75
2023-05-19T20:38:16.371Z,63.57
2023-05-19T20:40:43.115Z,64.03
2023-05-19T20:43:09.735Z,64.19
2023-05-19T20:45:36.726Z,64.81
2023-05-19T20:48:03.829Z,64.96
2023-05-19T20:50:30.838Z,64.65
2023-05-19T20:52:57.584Z,65.28
2023-05-19T20:55:24.227Z,64.87
2023-05-19T20:57:51.050Z,65.00
2023-05-19T21:00:17.954Z,65.06
2023-05-19T21:02:44.738Z,65.44
2023-05-19T21:05:11.728Z,65.35
2023-05-19T21:07:38.571Z,65.01
2023-05-19T21:10:05.974Z,65.12
2023-05-19T21:12:34.269Z,65.58
2023-05-19T21:15:03.597Z,65.52
2023-05-19T21:17:30.382Z,65.45
2023-05-19T21:19:59.614Z,65.57
2023-05-19T21:22:27.152Z,65.86
2023-05-19T21:24:54.436Z,65.90
2023-05-19T21:27:21.105Z,65.89
2023-05-19T21:29:51.606Z,66.41
2023-05-19T21:32:18.327Z,66.18
2023-05-19T21:34:45.248Z,66.17
2023-05-19T21:37:11.927Z,66.23
2023-05-19T21:39:38.677Z,66.32
2023-05-19T21:42:06.440Z,66.72
2023-05-19T21:44:33.164Z,66.74
2023-05-19T21:47:00.034Z,66.65
2023-05-19T21:49:26.753Z,66.81
2023-05-19T21:51:53.372Z,67.00
2023-05-19T21:54:20.043Z,66.74
2023-05-19T21:56:46.840Z,66.77
2023-05-19T21:59:13.619Z,66.67
2023-05-19T22:01:40.958Z,66.93
2023-05-19T22:04:09.426Z,67.10
2023-05-19T22:06:36.462Z,66.93
2023-05-19T22:09:03.129Z,66.81
2023-05-19T22:11:29.806Z,67.11
2023-05-19T22:13:56.491Z,67.35
2023-05-19T22:16:23.307Z,67.55
2023-05-19T22:18:50.069Z,67.50
2023-05-19T22:21:17.047Z,67.54
2023-05-19T22:23:44.372Z,67.52
2023-05-19T22:26:11.284Z,67.18
2023-05-19T22:28:37.974Z,67.41
2023-05-19T22:31:04.813Z,67.87
2023-05-19T22:33:31.630Z,67.87
2023-05-19T22:35:58.244Z,68.02
2023-05-19T22:38:24.951Z,68.60
2023-05-19T22:40:51.616Z,68.63
2023-05-19T22:43:18.321Z,69.03
2023-05-19T22:45:45.037Z,69.40
2023-05-19T22:48:11.864Z,69.23
2023-05-19T22:50:38.534Z,69.29
2023-05-19T22:53:05.263Z,69.23
2023-05-19T22:55:32.425Z,69.37
2023-05-19T22:57:59.481Z,69.64
2023-05-19T23:00:26.130Z,69.63
2023-05-19T23:02:52.944Z,69.57
2023-05-19T23:05:19.922Z,70.04
2023-05-19T23:07:46.610Z,70.00
2023-05-19T23:10:13.344Z,70.13
2023-05-19T23:12:40.159Z,70.26
2023-05-19T23:15:08.078Z,70.32
2023-05-19T23:17:34.818Z,70.26
2023-05-19T23:20:01.751Z,70.38
2023-05-19T23:22:28.398Z,70.48
2023-05-19T23:24:55.072Z,70.46
2023-05-19T23:27:21.696Z,70.69
2023-05-19T23:29:49.405Z,70.58
2023-05-19T23:32:16.108Z,70.65
2023-05-19T23:34:42.795Z,70.81
2023-05-19T23:37:09.823Z,71.19
2023-05-19T23:39:38.235Z,71.36
2023-05-19T23:42:05.754Z,71.40
2023-05-19T23:44:32.486Z,71.05
2023-05-19T23:46:59.306Z,71.74
2023-05-19T23:49:26.151Z,71.87
2023-05-19T23:51:52.840Z,71.46
2023-05-19T23:54:19.523Z,71.71
2023-05-19T23:56:46.208Z,71.43
2023-05-19T23:59:12.955Z,72.12
